createdAt,value
2022-09-02T00:00:54.069Z,0
2022-09-02T00:01:54.056Z,0
2022-09-02T00:02:54.057Z,0
2022-09-02T00:03:54.036Z,0
2022-09-02T00:04:54.035Z,0
2022-09-02T00:05:54.014Z,0
2022-09-02T00:06:54.007Z,0
2022-09-02T00:07:54.000Z,0
2022-09-02T00:08:53.991Z,0
2022-09-02T00:09:53.974Z,0
2022-09-02T00:10:53.986Z,0
2022-09-02T00:11:53.975Z,0
2022-09-02T00:12:53.946Z,0
2022-09-02T00:13:53.939Z,0
2022-09-02T00:14:53.940Z,0
2022-09-02T00:15:53.909Z,0
2022-09-02T00:16:53.907Z,0
2022-09-02T00:17:53.917Z,0
2022-09-02T00:18:53.882Z,0
2022-09-02T00:19:53.872Z,0
2022-09-02T00:20:53.860Z,0
2022-09-02T00:21:53.844Z,0
2022-09-02T00:22:53.844Z,0
2022-09-02T00:23:53.839Z,0
2022-09-02T00:24:53.816Z,0
2022-09-02T00:25:53.811Z,0
2022-09-02T00:26:53.799Z,0
2022-09-02T00:27:53.784Z,0
2022-09-02T00:28:53.777Z,0
2022-09-02T00:29:53.762Z,0
2022-09-02T00:30:53.801Z,0
2022-09-02T00:31:53.762Z,0
2022-09-02T00:32:53.736Z,0
2022-09-02T00:33:53.724Z,0
2022-09-02T00:34:53.740Z,0
2022-09-02T00:35:53.701Z,0
2022-09-02T00:36:53.697Z,0
2022-09-02T00:37:53.701Z,0
2022-09-02T00:38:53.667Z,0
2022-09-02T00:39:53.663Z,0
2022-09-02T00:40:53.664Z,0
2022-09-02T00:41:53.645Z,0
2022-09-02T00:42:53.629Z,0
2022-09-02T00:43:53.617Z,0
2022-09-02T00:44:53.602Z,0
2022-09-02T00:45:53.610Z,0
2022-09-02T00:46:53.584Z,0
2022-09-02T00:47:53.573Z,0
2022-09-02T00:48:53.578Z,0
2022-09-02T00:49:53.557Z,0
2022-09-02T00:50:53.542Z,0
2022-09-02T00:51:53.532Z,0
2022-09-02T00:52:53.532Z,0
2022-09-02T00:53:53.522Z,0
2022-09-02T00:54:53.502Z,0
2022-09-02T00:55:53.495Z,0
2022-09-02T00:56:53.482Z,0
2022-09-02T00:57:53.466Z,0
2022-09-02T00:58:53.455Z,0
2022-09-02T00:59:53.446Z,0
2022-09-02T01:00:53.441Z,0
2022-09-02T01:01:53.425Z,0
2022-09-02T01:02:53.441Z,0
2022-09-02T01:03:53.408Z,0
2022-09-02T01:04:53.393Z,0
2022-09-02T01:05:53.381Z,0
2022-09-02T01:06:53.405Z,0
2022-09-02T01:07:53.361Z,0
2022-09-02T01:08:53.350Z,0
2022-09-02T01:09:53.376Z,0
2022-09-02T01:10:53.323Z,0
2022-09-02T01:11:53.313Z,0
2022-09-02T01:12:53.300Z,0
2022-09-02T01:13:53.298Z,0
2022-09-02T01:14:53.309Z,0
2022-09-02T01:15:53.291Z,0
2022-09-02T01:16:53.271Z,0
2022-09-02T01:17:53.249Z,0
2022-09-02T01:18:53.235Z,0
2022-09-02T01:19:53.235Z,0
2022-09-02T01:20:53.226Z,0
2022-09-02T01:21:53.203Z,0
2022-09-02T01:22:53.197Z,0
2022-09-02T01:23:53.185Z,0
2022-09-02T01:24:53.173Z,0
2022-09-02T01:25:53.169Z,0
2022-09-02T01:26:53.166Z,0
2022-09-02T01:27:53.144Z,0
2022-09-02T01:28:53.141Z,0
2022-09-02T01:29:53.124Z,0
2022-09-02T01:30:53.123Z,0
2022-09-02T01:31:53.098Z,0
2022-09-02T01:32:53.084Z,0
2022-09-02T01:33:53.088Z,0
2022-09-02T01:34:53.070Z,0
2022-09-02T01:35:53.052Z,0
2022-09-02T01:36:53.040Z,0
2022-09-02T01:37:53.041Z,0
2022-09-02T01:38:53.020Z,0
2022-09-02T01:39:53.010Z,0
2022-09-02T01:40:52.997Z,0
2022-09-02T01:41:52.985Z,0
2022-09-02T01:42:52.979Z,0
2022-09-02T01:43:52.985Z,0
2022-09-02T01:44:52.960Z,0
2022-09-02T01:45:52.946Z,0
2022-09-02T01:46:52.937Z,0
2022-09-02T01:47:52.925Z,0
2022-09-02T01:48:52.916Z,0
2022-09-02T01:49:52.912Z,0
2022-09-02T01:50:52.899Z,0
2022-09-02T01:51:52.881Z,0
2022-09-02T01:52:52.887Z,0
2022-09-02T01:53:52.859Z,0
2022-09-02T01:54:52.857Z,0
2022-09-02T01:55:52.866Z,0
2022-09-02T01:56:52.824Z,0
2022-09-02T01:57:52.814Z,0
2022-09-02T01:58:52.805Z,0
2022-09-02T01:59:52.793Z,0
2022-09-02T02:00:52.786Z,0
2022-09-02T02:01:52.779Z,0
2022-09-02T02:02:52.768Z,0
2022-09-02T02:03:52.748Z,0
2022-09-02T02:04:52.746Z,0
2022-09-02T02:05:52.730Z,0
2022-09-02T02:06:52.727Z,0
2022-09-02T02:07:52.711Z,0
2022-09-02T02:08:52.714Z,0
2022-09-02T02:09:52.688Z,0
2022-09-02T02:10:52.667Z,0
2022-09-02T02:11:52.659Z,0
2022-09-02T02:12:52.654Z,0
2022-09-02T02:13:52.645Z,0
2022-09-02T02:14:52.627Z,0
2022-09-02T02:15:52.617Z,0
2022-09-02T02:16:52.609Z,0
2022-09-02T02:17:53.538Z,0
2022-09-02T02:18:52.587Z,0
2022-09-02T02:19:52.601Z,0
2022-09-02T02:20:52.565Z,0
2022-09-02T02:21:52.547Z,0
2022-09-02T02:22:52.548Z,0
2022-09-02T02:23:52.551Z,0
2022-09-02T02:24:52.520Z,0
2022-09-02T02:25:52.519Z,0
2022-09-02T02:26:52.496Z,0
2022-09-02T02:27:52.490Z,0
2022-09-02T02:28:52.474Z,0
2022-09-02T02:29:52.475Z,0
2022-09-02T02:30:52.450Z,0
2022-09-02T02:31:52.441Z,0
2022-09-02T02:32:52.432Z,0
2022-09-02T02:33:52.429Z,0
2022-09-02T02:34:52.406Z,0
2022-09-02T02:35:52.403Z,0
2022-09-02T02:36:52.386Z,0
2022-09-02T02:37:52.382Z,0
2022-09-02T02:38:52.369Z,0
2022-09-02T02:39:52.352Z,0
2022-09-02T02:40:52.352Z,0
2022-09-02T02:41:52.336Z,0
2022-09-02T02:42:52.322Z,0
2022-09-02T02:43:52.322Z,0
2022-09-02T02:44:52.317Z,0
2022-09-02T02:45:52.286Z,0
2022-09-02T02:46:52.289Z,0
2022-09-02T02:47:52.263Z,0
2022-09-02T02:48:52.252Z,0
2022-09-02T02:49:52.247Z,0
2022-09-02T02:50:52.232Z,0
2022-09-02T02:51:52.224Z,0
2022-09-02T02:52:52.209Z,0
2022-09-02T02:53:52.201Z,0
2022-09-02T02:54:52.189Z,0
2022-09-02T02:55:52.182Z,0
2022-09-02T02:56:52.165Z,0
2022-09-02T02:57:52.159Z,0
2022-09-02T02:58:52.140Z,0
2022-09-02T02:59:52.131Z,0
2022-09-02T03:00:52.124Z,0
2022-09-02T03:01:52.110Z,0
2022-09-02T03:02:52.110Z,0
2022-09-02T03:03:52.091Z,0
2022-09-02T03:04:52.079Z,0
2022-09-02T03:05:52.086Z,0
2022-09-02T03:06:52.061Z,0
2022-09-02T03:07:52.042Z,0
2022-09-02T03:08:52.037Z,0
2022-09-02T03:09:52.040Z,0
2022-09-02T03:10:52.014Z,0
2022-09-02T03:11:52.006Z,0
2022-09-02T03:12:51.987Z,0
2022-09-02T03:13:51.982Z,0
2022-09-02T03:14:51.972Z,0
2022-09-02T03:15:51.971Z,0
2022-09-02T03:16:51.947Z,0
2022-09-02T03:17:51.936Z,0
2022-09-02T03:18:51.926Z,0
2022-09-02T03:19:51.934Z,0
2022-09-02T03:20:51.904Z,0
2022-09-02T03:21:51.908Z,0
2022-09-02T03:22:51.885Z,0
2022-09-02T03:23:51.879Z,0
2022-09-02T03:24:51.865Z,0
2022-09-02T03:25:51.857Z,0
2022-09-02T03:26:51.857Z,0
2022-09-02T03:27:51.827Z,0
2022-09-02T03:28:51.824Z,0
2022-09-02T03:29:51.818Z,0
2022-09-02T03:30:51.794Z,0
2022-09-02T03:31:51.784Z,0
2022-09-02T03:32:51.789Z,0
2022-09-02T03:33:51.776Z,0
2022-09-02T03:34:51.754Z,0
2022-09-02T03:35:51.744Z,0
2022-09-02T03:36:51.762Z,0
2022-09-02T03:37:51.721Z,0
2022-09-02T03:38:51.708Z,0
2022-09-02T03:39:51.711Z,0
2022-09-02T03:40:51.749Z,0
2022-09-02T03:41:51.736Z,0
2022-09-02T03:42:51.692Z,0
2022-09-02T03:43:51.673Z,0
2022-09-02T03:44:51.657Z,0
2022-09-02T03:45:51.675Z,0
2022-09-02T03:46:51.640Z,0
2022-09-02T03:47:51.632Z,0
2022-09-02T03:48:51.619Z,0
2022-09-02T03:49:51.608Z,0
2022-09-02T03:50:51.600Z,0
2022-09-02T03:51:51.583Z,0
2022-09-02T03:52:51.572Z,0
2022-09-02T03:53:51.567Z,0
2022-09-02T03:54:51.562Z,0
2022-09-02T03:55:51.558Z,0
2022-09-02T03:56:51.528Z,0
2022-09-02T03:57:51.511Z,0
2022-09-02T03:58:51.512Z,0
2022-09-02T03:59:51.524Z,0
2022-09-02T04:00:51.484Z,0
2022-09-02T04:01:51.480Z,0
2022-09-02T04:02:51.467Z,0
2022-09-02T04:03:51.457Z,0
2022-09-02T04:04:51.451Z,0
2022-09-02T04:05:51.431Z,0
2022-09-02T04:06:51.425Z,0
2022-09-02T04:07:51.418Z,0
2022-09-02T04:08:51.408Z,0
2022-09-02T04:09:51.395Z,0
2022-09-02T04:10:51.388Z,0
2022-09-02T04:11:51.372Z,0
2022-09-02T04:12:51.374Z,0
2022-09-02T04:13:51.379Z,0
2022-09-02T04:14:51.342Z,0
2022-09-02T04:15:51.334Z,0
2022-09-02T04:16:51.344Z,0
2022-09-02T04:17:51.354Z,0
2022-09-02T04:18:51.303Z,0
2022-09-02T04:19:51.295Z,0
2022-09-02T04:20:51.298Z,0
2022-09-02T04:21:51.277Z,0
2022-09-02T04:22:51.270Z,0
2022-09-02T04:23:51.250Z,0
2022-09-02T04:24:51.234Z,0
2022-09-02T04:25:51.234Z,0
2022-09-02T04:26:51.238Z,0
2022-09-02T04:27:51.208Z,0
2022-09-02T04:28:51.212Z,0
2022-09-02T04:29:51.200Z,0
2022-09-02T04:30:51.184Z,0
2022-09-02T04:31:51.208Z,0
2022-09-02T04:32:51.162Z,0
2022-09-02T04:33:51.142Z,0
2022-09-02T04:34:51.136Z,0
2022-09-02T04:35:51.132Z,0
2022-09-02T04:36:51.124Z,0
2022-09-02T04:37:51.116Z,0
2022-09-02T04:38:51.097Z,0
2022-09-02T04:39:51.088Z,0
2022-09-02T04:40:51.081Z,0
2022-09-02T04:41:51.074Z,0
2022-09-02T04:42:51.051Z,5.62
2022-09-02T04:43:51.044Z,5.62
2022-09-02T04:44:51.040Z,5.62
2022-09-02T04:45:51.027Z,5.62
2022-09-02T04:46:51.014Z,5.62
2022-09-02T04:47:51.021Z,5.62
2022-09-02T04:48:50.996Z,5.62
2022-09-02T04:49:50.983Z,5.62
2022-09-02T04:50:50.977Z,5.62
2022-09-02T04:51:50.954Z,5.62
2022-09-02T04:52:50.965Z,5.62
2022-09-02T04:53:50.954Z,5.62
2022-09-02T04:54:50.930Z,5.62
2022-09-02T04:55:50.923Z,11.25
2022-09-02T04:56:50.916Z,11.25
2022-09-02T04:57:50.909Z,11.25
2022-09-02T04:58:50.895Z,11.25
2022-09-02T04:59:50.887Z,11.25
2022-09-02T05:00:50.865Z,11.25
2022-09-02T05:01:50.860Z,11.25
2022-09-02T05:02:50.874Z,11.25
2022-09-02T05:03:50.835Z,11.25
2022-09-02T05:04:50.827Z,11.25
2022-09-02T05:05:50.836Z,16.88
2022-09-02T05:06:50.802Z,16.88
2022-09-02T05:07:50.796Z,16.88
2022-09-02T05:08:50.847Z,16.88
2022-09-02T05:09:50.772Z,16.88
2022-09-02T05:10:50.782Z,16.88
2022-09-02T05:11:50.831Z,16.88
2022-09-02T05:12:50.748Z,16.88
2022-09-02T05:13:50.731Z,16.88
2022-09-02T05:14:50.722Z,16.88
2022-09-02T05:15:50.724Z,16.88
2022-09-02T05:16:50.697Z,22.5
2022-09-02T05:17:50.720Z,22.5
2022-09-02T05:18:50.676Z,22.5
2022-09-02T05:19:50.696Z,22.5
2022-09-02T05:20:50.661Z,22.5
2022-09-02T05:21:50.648Z,22.5
2022-09-02T05:22:50.640Z,22.5
2022-09-02T05:23:50.648Z,22.5
2022-09-02T05:24:50.619Z,22.5
2022-09-02T05:25:50.607Z,28.12
2022-09-02T05:26:50.614Z,28.12
2022-09-02T05:27:50.652Z,28.12
2022-09-02T05:28:50.628Z,28.12
2022-09-02T05:29:50.648Z,28.12
2022-09-02T05:30:50.660Z,28.12
2022-09-02T05:31:50.552Z,28.12
2022-09-02T05:32:50.578Z,28.12
2022-09-02T05:33:50.530Z,33.75
2022-09-02T05:34:50.525Z,33.75
2022-09-02T05:35:50.524Z,33.75
2022-09-02T05:36:50.518Z,33.75
2022-09-02T05:37:50.515Z,33.75
2022-09-02T05:38:50.470Z,33.75
2022-09-02T05:39:50.475Z,33.75
2022-09-02T05:40:50.471Z,39.38
2022-09-02T05:41:50.451Z,39.38
2022-09-02T05:42:50.431Z,39.38
2022-09-02T05:43:50.440Z,39.38
2022-09-02T05:44:50.404Z,39.38
2022-09-02T05:45:50.394Z,45
2022-09-02T05:46:50.389Z,45
2022-09-02T05:47:50.371Z,45
2022-09-02T05:48:50.363Z,45
2022-09-02T05:49:50.359Z,50.62
2022-09-02T05:50:50.344Z,50.62
2022-09-02T05:51:50.341Z,50.62
2022-09-02T05:52:50.351Z,50.62
2022-09-02T05:53:50.314Z,50.62
2022-09-02T05:54:50.297Z,56.25
2022-09-02T05:55:50.287Z,56.25
2022-09-02T05:56:50.282Z,56.25
2022-09-02T05:57:50.271Z,56.25
2022-09-02T05:58:50.259Z,56.25
2022-09-02T05:59:50.256Z,56.25
2022-09-02T06:00:50.243Z,56.25
2022-09-02T06:01:50.228Z,56.25
2022-09-02T06:02:50.220Z,56.25
2022-09-02T06:03:50.211Z,56.25
2022-09-02T06:04:50.200Z,56.25
2022-09-02T06:05:50.245Z,56.25
2022-09-02T06:06:50.182Z,56.25
2022-09-02T06:07:50.165Z,56.25
2022-09-02T06:08:50.192Z,56.25
2022-09-02T06:09:50.225Z,56.25
2022-09-02T06:10:50.165Z,61.88
2022-09-02T06:11:50.119Z,61.88
2022-09-02T06:12:50.122Z,61.88
2022-09-02T06:13:50.116Z,61.88
2022-09-02T06:14:50.087Z,61.88
2022-09-02T06:15:50.079Z,56.25
2022-09-02T06:16:50.077Z,61.88
2022-09-02T06:17:50.069Z,61.88
2022-09-02T06:18:50.058Z,61.88
2022-09-02T06:19:50.036Z,61.88
2022-09-02T06:20:50.025Z,61.88
2022-09-02T06:21:50.019Z,61.88
2022-09-02T06:22:50.010Z,61.88
2022-09-02T06:23:49.993Z,61.88
2022-09-02T06:24:50.059Z,61.88
2022-09-02T06:25:50.030Z,61.88
2022-09-02T06:26:49.961Z,61.88
2022-09-02T06:27:49.976Z,61.88
2022-09-02T06:28:49.939Z,67.5
2022-09-02T06:29:49.931Z,67.5
2022-09-02T06:30:49.917Z,73.12
2022-09-02T06:31:49.989Z,78.75
2022-09-02T06:32:49.907Z,90
2022-09-02T06:33:49.891Z,90
2022-09-02T06:34:49.879Z,95.62
2022-09-02T06:35:49.870Z,95.62
2022-09-02T06:36:49.852Z,95.62
2022-09-02T06:37:49.846Z,101.25
2022-09-02T06:38:49.835Z,101.25
2022-09-02T06:39:49.850Z,101.25
2022-09-02T06:40:49.830Z,101.25
2022-09-02T06:41:49.830Z,106.88
2022-09-02T06:42:49.787Z,106.88
2022-09-02T06:43:49.787Z,106.88
2022-09-02T06:44:49.778Z,112.5
2022-09-02T06:45:49.765Z,112.5
2022-09-02T06:46:49.766Z,112.5
2022-09-02T06:47:49.748Z,118.12
2022-09-02T06:48:49.749Z,112.5
2022-09-02T06:49:49.724Z,118.12
2022-09-02T06:50:49.707Z,118.12
2022-09-02T06:51:49.697Z,118.12
2022-09-02T06:52:49.685Z,118.12
2022-09-02T06:53:49.682Z,118.12
2022-09-02T06:54:49.675Z,123.75
2022-09-02T06:55:49.654Z,123.75
2022-09-02T06:56:49.662Z,129.38
2022-09-02T06:57:49.638Z,129.38
2022-09-02T06:58:49.636Z,129.38
2022-09-02T06:59:49.619Z,129.38
2022-09-02T07:00:49.626Z,129.38
2022-09-02T07:01:49.587Z,135
2022-09-02T07:02:49.575Z,135
2022-09-02T07:03:49.666Z,135
2022-09-02T07:04:49.584Z,135
2022-09-02T07:05:49.543Z,135
2022-09-02T07:06:49.536Z,135
2022-09-02T07:07:49.548Z,140.62
2022-09-02T07:08:49.610Z,140.62
2022-09-02T07:09:49.502Z,140.62
2022-09-02T07:10:49.493Z,140.62
2022-09-02T07:11:49.485Z,140.62
2022-09-02T07:12:49.477Z,140.62
2022-09-02T07:13:49.458Z,146.25
2022-09-02T07:14:49.551Z,146.25
2022-09-02T07:15:49.448Z,146.25
2022-09-02T07:16:49.463Z,146.25
2022-09-02T07:17:49.444Z,151.88
2022-09-02T07:18:49.408Z,151.88
2022-09-02T07:19:49.398Z,151.88
2022-09-02T07:20:49.397Z,151.88
2022-09-02T07:21:49.393Z,157.5
2022-09-02T07:23:49.386Z,157.5
2022-09-02T07:24:49.354Z,157.5
2022-09-02T07:25:49.339Z,163.12
2022-09-02T07:26:49.327Z,163.12
2022-09-02T07:27:49.312Z,163.12
2022-09-02T07:28:49.313Z,163.12
2022-09-02T07:29:49.297Z,168.75
2022-09-02T07:30:49.350Z,168.75
2022-09-02T07:31:49.273Z,168.75
2022-09-02T07:32:49.277Z,174.38
2022-09-02T07:33:49.256Z,174.38
2022-09-02T07:34:49.242Z,174.38
2022-09-02T07:35:49.235Z,180
2022-09-02T07:36:49.222Z,180
2022-09-02T07:37:49.215Z,180
2022-09-02T07:38:49.205Z,185.62
2022-09-02T07:39:49.190Z,185.62
2022-09-02T07:40:49.189Z,185.62
2022-09-02T07:41:49.166Z,185.62
2022-09-02T07:42:49.169Z,191.25
2022-09-02T07:43:49.147Z,191.25
2022-09-02T07:44:49.138Z,191.25
2022-09-02T07:45:49.136Z,191.25
2022-09-02T07:46:49.113Z,191.25
2022-09-02T07:47:49.109Z,196.88
2022-09-02T07:48:49.103Z,196.88
2022-09-02T07:49:49.092Z,202.5
2022-09-02T07:50:49.080Z,202.5
2022-09-02T07:51:49.079Z,208.12
2022-09-02T07:52:49.052Z,213.75
2022-09-02T07:53:49.046Z,219.38
2022-09-02T07:54:49.038Z,225
2022-09-02T07:55:49.041Z,230.62
2022-09-02T07:56:49.012Z,236.25
2022-09-02T07:57:49.019Z,241.88
2022-09-02T07:58:48.986Z,253.12
2022-09-02T07:59:48.985Z,264.38
2022-09-02T08:00:48.963Z,360
2022-09-02T08:01:48.972Z,281.25
2022-09-02T08:02:48.948Z,281.25
2022-09-02T08:03:48.951Z,292.5
2022-09-02T08:04:48.925Z,298.12
2022-09-02T08:05:48.926Z,303.75
2022-09-02T08:06:48.900Z,309.38
2022-09-02T08:07:48.901Z,315
2022-09-02T08:08:48.886Z,320.62
2022-09-02T08:09:48.898Z,337.5
2022-09-02T08:10:48.873Z,371.25
2022-09-02T08:11:48.852Z,483.75
2022-09-02T08:12:48.844Z,675
2022-09-02T08:13:48.833Z,736.88
2022-09-02T08:14:48.822Z,849.38
2022-09-02T08:15:48.823Z,1023.75
2022-09-02T08:16:48.801Z,1057.5
2022-09-02T08:17:48.803Z,866.25
2022-09-02T08:18:48.778Z,691.88
2022-09-02T08:19:48.773Z,585
2022-09-02T08:20:48.769Z,523.12
2022-09-02T08:21:48.833Z,483.75
2022-09-02T08:22:48.745Z,466.88
2022-09-02T08:23:48.733Z,450
2022-09-02T08:24:49.053Z,450
2022-09-02T08:25:48.710Z,450
2022-09-02T08:26:48.729Z,444.38
2022-09-02T08:27:48.685Z,444.38
2022-09-02T08:28:48.685Z,444.38
2022-09-02T08:29:48.660Z,438.75
2022-09-02T08:30:48.650Z,438.75
2022-09-02T08:31:48.644Z,438.75
2022-09-02T08:32:48.629Z,438.75
2022-09-02T08:33:48.632Z,455.62
2022-09-02T08:34:48.648Z,534.38
2022-09-02T08:35:48.641Z,753.75
2022-09-02T08:36:48.626Z,883.12
2022-09-02T08:37:48.581Z,916.88
2022-09-02T08:38:48.578Z,950.62
2022-09-02T08:39:48.554Z,973.12
2022-09-02T08:40:48.612Z,978.75
2022-09-02T08:41:48.543Z,1006.88
2022-09-02T08:42:48.526Z,1040.62
2022-09-02T08:43:48.515Z,1051.88
2022-09-02T08:44:48.536Z,1063.12
2022-09-02T08:45:48.560Z,1068.75
2022-09-02T08:46:48.505Z,1085.62
2022-09-02T08:47:48.471Z,1130.62
2022-09-02T08:48:48.465Z,1153.12
2022-09-02T08:49:48.453Z,1136.25
2022-09-02T08:50:48.446Z,1158.75
2022-09-02T08:51:48.434Z,1170
2022-09-02T08:52:48.418Z,1192.5
2022-09-02T08:53:48.428Z,1192.5
2022-09-02T08:54:48.403Z,1248.75
2022-09-02T08:55:48.444Z,1215
2022-09-02T08:56:48.397Z,1192.5
2022-09-02T08:57:48.375Z,1260
2022-09-02T08:58:48.372Z,1260
2022-09-02T08:59:48.361Z,1237.5
2022-09-02T09:00:48.338Z,1226.25
2022-09-02T09:01:48.343Z,1237.5
2022-09-02T09:02:48.329Z,1243.12
2022-09-02T09:03:48.309Z,1260
2022-09-02T09:04:48.301Z,1282.5
2022-09-02T09:05:48.293Z,1254.38
2022-09-02T09:06:48.292Z,1231.88
2022-09-02T09:07:48.266Z,1254.38
2022-09-02T09:08:48.269Z,1237.5
2022-09-02T09:09:48.247Z,1305
2022-09-02T09:10:48.243Z,1305
2022-09-02T09:11:48.246Z,1310.62
2022-09-02T09:12:49.112Z,1288.12
2022-09-02T09:13:48.219Z,1305
2022-09-02T09:14:48.210Z,1282.5
2022-09-02T09:15:48.190Z,1254.38
2022-09-02T09:16:48.180Z,1243.12
2022-09-02T09:17:48.165Z,1248.75
2022-09-02T09:18:48.169Z,1265.62
2022-09-02T09:19:48.176Z,1203.75
2022-09-02T09:20:48.145Z,1108.12
2022-09-02T09:21:48.122Z,770.62
2022-09-02T09:22:48.110Z,360
2022-09-02T09:23:48.113Z,191.25
2022-09-02T09:24:48.092Z,191.25
2022-09-02T09:25:48.156Z,185.62
2022-09-02T09:26:48.075Z,185.62
2022-09-02T09:27:48.062Z,185.62
2022-09-02T09:28:48.050Z,185.62
2022-09-02T09:29:48.037Z,185.62
2022-09-02T09:30:48.051Z,191.25
2022-09-02T09:31:48.022Z,185.62
2022-09-02T09:32:48.026Z,185.62
2022-09-02T09:33:48.031Z,185.62
2022-09-02T09:34:48.001Z,185.62
2022-09-02T09:35:47.989Z,185.62
2022-09-02T09:36:47.973Z,185.62
2022-09-02T09:37:47.959Z,191.25
2022-09-02T09:38:47.969Z,191.25
2022-09-02T09:39:47.964Z,191.25
2022-09-02T09:40:47.973Z,191.25
2022-09-02T09:41:47.930Z,191.25
2022-09-02T09:42:47.911Z,191.25
2022-09-02T09:43:47.901Z,196.88
2022-09-02T09:44:47.897Z,196.88
2022-09-02T09:45:47.896Z,196.88
2022-09-02T09:46:47.903Z,196.88
2022-09-02T09:47:47.862Z,196.88
2022-09-02T09:48:47.845Z,202.5
2022-09-02T09:49:47.832Z,202.5
2022-09-02T09:50:47.878Z,202.5
2022-09-02T09:51:47.813Z,208.12
2022-09-02T09:52:47.797Z,208.12
2022-09-02T09:53:47.795Z,202.5
2022-09-02T09:54:47.786Z,191.25
2022-09-02T09:55:47.769Z,196.88
2022-09-02T09:56:47.773Z,196.88
2022-09-02T09:57:47.749Z,196.88
2022-09-02T09:58:47.736Z,202.5
2022-09-02T09:59:47.741Z,202.5
2022-09-02T10:00:47.719Z,202.5
2022-09-02T10:01:47.791Z,202.5
2022-09-02T10:02:47.720Z,208.12
2022-09-02T10:03:47.685Z,208.12
2022-09-02T10:04:47.695Z,253.12
2022-09-02T10:05:47.663Z,652.5
2022-09-02T10:06:47.661Z,1141.88
2022-09-02T10:07:47.645Z,1389.38
2022-09-02T10:08:47.642Z,1490.62
2022-09-02T10:09:47.654Z,1518.75
2022-09-02T10:10:47.620Z,1524.38
2022-09-02T10:11:47.608Z,1479.38
2022-09-02T10:12:47.587Z,1541.25
2022-09-02T10:13:47.588Z,1541.25
2022-09-02T10:14:48.340Z,1558.12
2022-09-02T10:15:47.564Z,1603.12
2022-09-02T10:16:47.547Z,1648.12
2022-09-02T10:17:47.547Z,1710
2022-09-02T10:18:47.527Z,1670.62
2022-09-02T10:19:47.516Z,1653.75
2022-09-02T10:20:47.520Z,1597.5
2022-09-02T10:21:47.508Z,1507.5
2022-09-02T10:22:47.495Z,1575
2022-09-02T10:23:47.479Z,1625.62
2022-09-02T10:24:47.471Z,1642.5
2022-09-02T10:25:47.466Z,1586.25
2022-09-02T10:26:47.451Z,1575
2022-09-02T10:27:47.439Z,1603.12
2022-09-02T10:28:47.480Z,1625.62
2022-09-02T10:29:47.413Z,1608.75
2022-09-02T10:30:47.406Z,1642.5
2022-09-02T10:31:47.410Z,1608.75
2022-09-02T10:32:47.407Z,1608.75
2022-09-02T10:33:47.374Z,1569.38
2022-09-02T10:34:47.364Z,1608.75
2022-09-02T10:35:47.361Z,1608.75
2022-09-02T10:36:47.348Z,1636.88
2022-09-02T10:37:47.457Z,1597.5
2022-09-02T10:38:47.329Z,1631.25
2022-09-02T10:39:47.363Z,1541.25
2022-09-02T10:40:47.314Z,579.38
2022-09-02T10:41:47.373Z,427.5
2022-09-02T10:42:47.301Z,416.25
2022-09-02T10:43:47.276Z,427.5
2022-09-02T10:44:47.331Z,438.75
2022-09-02T10:45:47.272Z,455.62
2022-09-02T10:46:47.248Z,883.12
2022-09-02T10:47:47.237Z,1608.75
2022-09-02T10:48:47.235Z,1771.88
2022-09-02T10:49:47.230Z,1749.38
2022-09-02T10:50:47.224Z,1721.25
2022-09-02T10:51:47.221Z,1693.12
2022-09-02T10:52:47.185Z,1625.62
2022-09-02T10:53:47.298Z,1653.75
2022-09-02T10:54:47.186Z,1777.5
2022-09-02T10:55:47.167Z,1743.75
2022-09-02T10:56:47.148Z,1456.88
2022-09-02T10:57:47.145Z,1468.12
2022-09-02T10:58:47.133Z,1749.38
2022-09-02T10:59:47.142Z,1766.25
2022-09-02T11:00:47.114Z,1721.25
2022-09-02T11:01:47.115Z,1732.5
2022-09-02T11:02:47.110Z,1288.12
2022-09-02T11:03:47.087Z,191.25
2022-09-02T11:04:47.085Z,208.12
2022-09-02T11:05:47.066Z,286.88
2022-09-02T11:06:47.071Z,1681.88
2022-09-02T11:07:47.041Z,1794.38
2022-09-02T11:08:47.038Z,1867.5
2022-09-02T11:09:47.030Z,1282.5
2022-09-02T11:10:47.009Z,348.75
2022-09-02T11:11:47.006Z,219.38
2022-09-02T11:12:46.993Z,185.62
2022-09-02T11:13:47.036Z,180
2022-09-02T11:14:46.990Z,191.25
2022-09-02T11:15:46.963Z,241.88
2022-09-02T11:16:46.951Z,348.75
2022-09-02T11:17:46.982Z,320.62
2022-09-02T11:18:46.934Z,860.62
2022-09-02T11:19:46.919Z,1946.25
2022-09-02T11:20:46.934Z,1946.25
2022-09-02T11:21:46.935Z,1845
2022-09-02T11:22:46.911Z,1805.62
2022-09-02T11:23:46.892Z,1794.38
2022-09-02T11:24:46.877Z,1833.75
2022-09-02T11:25:46.908Z,781.88
2022-09-02T11:26:46.876Z,213.75
2022-09-02T11:27:46.843Z,191.25
2022-09-02T11:28:46.877Z,213.75
2022-09-02T11:29:46.823Z,230.62
2022-09-02T11:30:46.807Z,230.62
2022-09-02T11:31:46.800Z,258.75
2022-09-02T11:32:47.018Z,945
2022-09-02T11:33:46.795Z,1822.5
2022-09-02T11:34:46.774Z,1850.62
2022-09-02T11:35:46.762Z,1895.62
2022-09-02T11:36:46.753Z,1901.25
2022-09-02T11:37:46.762Z,1800
2022-09-02T11:38:46.743Z,1800
2022-09-02T11:39:46.722Z,1895.62
2022-09-02T11:40:46.727Z,1946.25
2022-09-02T11:41:46.703Z,1884.38
2022-09-02T11:42:46.691Z,1850.62
2022-09-02T11:43:46.686Z,1895.62
2022-09-02T11:44:46.685Z,1935
2022-09-02T11:45:46.666Z,1845
2022-09-02T11:46:46.669Z,1749.38
2022-09-02T11:47:46.657Z,1822.5
2022-09-02T11:48:46.630Z,1861.88
2022-09-02T11:49:46.655Z,1901.25
2022-09-02T11:50:46.627Z,1946.25
2022-09-02T11:51:46.604Z,1890
2022-09-02T11:52:46.600Z,1828.12
2022-09-02T11:53:46.590Z,1805.62
2022-09-02T11:54:46.595Z,1766.25
2022-09-02T11:55:46.563Z,1726.88
2022-09-02T11:56:46.574Z,1771.88
2022-09-02T11:57:46.548Z,1845
2022-09-02T11:58:46.538Z,1940.62
2022-09-02T11:59:46.526Z,1912.5
2022-09-02T12:00:46.516Z,1906.88
2022-09-02T12:01:46.519Z,1963.12
2022-09-02T12:02:46.500Z,1895.62
2022-09-02T12:03:46.500Z,1890
2022-09-02T12:04:46.479Z,1850.62
2022-09-02T12:05:46.484Z,1867.5
2022-09-02T12:06:46.474Z,1923.75
2022-09-02T12:07:46.450Z,1929.38
2022-09-02T12:08:46.443Z,1935
2022-09-02T12:09:46.435Z,1918.12
2022-09-02T12:10:46.437Z,1968.75
2022-09-02T12:11:46.420Z,1906.88
2022-09-02T12:12:46.407Z,545.62
2022-09-02T12:13:46.399Z,264.38
2022-09-02T12:14:46.387Z,230.62
2022-09-02T12:15:46.398Z,208.12
2022-09-02T12:16:46.380Z,208.12
2022-09-02T12:17:46.362Z,236.25
2022-09-02T12:18:46.346Z,225
2022-09-02T12:19:46.350Z,225
2022-09-02T12:20:46.333Z,247.5
2022-09-02T12:21:46.323Z,247.5
2022-09-02T12:22:46.332Z,247.5
2022-09-02T12:23:46.304Z,258.75
2022-09-02T12:24:46.289Z,326.25
2022-09-02T12:25:46.326Z,483.75
2022-09-02T12:26:46.267Z,658.12
2022-09-02T12:27:46.262Z,264.38
2022-09-02T12:28:46.259Z,253.12
2022-09-02T12:29:46.242Z,1822.5
2022-09-02T12:30:46.233Z,236.25
2022-09-02T12:31:46.215Z,191.25
2022-09-02T12:32:47.217Z,185.62
2022-09-02T12:33:46.204Z,196.88
2022-09-02T12:34:46.202Z,208.12
2022-09-02T12:35:46.354Z,213.75
2022-09-02T12:36:46.178Z,219.38
2022-09-02T12:37:47.134Z,219.38
2022-09-02T12:38:46.144Z,236.25
2022-09-02T12:39:46.200Z,478.12
2022-09-02T12:40:46.142Z,298.12
2022-09-02T12:41:46.117Z,264.38
2022-09-02T12:42:46.111Z,275.62
2022-09-02T12:43:46.105Z,1552.5
2022-09-02T12:44:46.091Z,1659.38
2022-09-02T12:45:46.092Z,1608.75
2022-09-02T12:46:46.065Z,1535.62
2022-09-02T12:47:46.100Z,1524.38
2022-09-02T12:48:46.062Z,1620
2022-09-02T12:49:46.063Z,1636.88
2022-09-02T12:50:46.026Z,1710
2022-09-02T12:51:46.014Z,1760.62
2022-09-02T12:52:46.055Z,1732.5
2022-09-02T12:53:46.005Z,1659.38
2022-09-02T12:54:46.016Z,1591.88
2022-09-02T12:55:46.166Z,1563.75
2022-09-02T12:56:46.009Z,1676.25
2022-09-02T12:57:45.957Z,1636.88
2022-09-02T12:58:45.951Z,1704.38
2022-09-02T12:59:45.940Z,388.12
2022-09-02T13:00:45.945Z,697.5
2022-09-02T13:01:45.918Z,1198.12
2022-09-02T13:02:45.910Z,911.25
2022-09-02T13:03:45.907Z,478.12
2022-09-02T13:04:45.902Z,495
2022-09-02T13:05:45.890Z,461.25
2022-09-02T13:06:45.889Z,348.75
2022-09-02T13:07:45.895Z,286.88
2022-09-02T13:08:45.868Z,219.38
2022-09-02T13:09:45.867Z,208.12
2022-09-02T13:10:45.862Z,202.5
2022-09-02T13:11:45.818Z,202.5
2022-09-02T13:12:45.814Z,208.12
2022-09-02T13:13:45.813Z,213.75
2022-09-02T13:14:45.786Z,219.38
2022-09-02T13:15:45.943Z,236.25
2022-09-02T13:16:45.792Z,590.62
2022-09-02T13:17:45.768Z,236.25
2022-09-02T13:18:45.755Z,230.62
2022-09-02T13:19:45.743Z,236.25